Terminal Aerodrome Forecast
Issued by NWS

Current Version | Previous Version | Text Only | Print | Product List | Glossary On
Versions: 1 2 3 4 5 6 7 8 9 10 11 12 13 14 15 16 17 18 19 20 21 22 23 24 25 26 27 28 29 30 31 32 33 34 35 36 37 38 39 40 41 42
000
FTUS42 KMFL 040903 AAA
TAFOPF
TAF AMD
KOPF 040903Z 0409/0506 00000KT P6SM SKC
     FM041400 28003KT P6SM SCT030
     FM041800 18007KT P6SM VCTS SCT030CB BKN250
     FM050100 24003KT P6SM BKN250=

USA.gov is the U.S. government's official web portal to all federal, state and local government web resources and services.